Time;durP1;ratioP1;P1;durP2;ratioP2;P2;SDS_P1;SDS_P2;PMS_P1;PMS_P2;Temp;Humidity;BMP_temperature;BMP_pressure;BME280_temperature;BME280_humidity;BME280_pressure;Samples;Min_cycle;Max_cycle;Signal;HPM_P1;HPM_P2
2022/02/21 00:01:59;;;;;;;1.13;0.33;;;;;;;9.75;82.80;97997.47;5005045;28;20212;-81
2022/02/21 00:04:27;;;;;;;0.50;0.30;;;;;;;9.71;83.17;97946.44;5002856;28;20234;-82
2022/02/21 00:06:54;;;;;;;0.73;0.40;;;;;;;9.70;82.84;97959.88;5013986;28;20219;-82
2022/02/21 00:09:20;;;;;;;1.03;0.20;;;;;;;9.67;82.81;97945.06;5008640;28;20211;-81
2022/02/21 00:11:47;;;;;;;0.83;0.40;;;;;;;9.63;83.13;97975.63;5005184;28;20233;-81
2022/02/21 00:14:13;;;;;;;1.33;0.50;;;;;;;9.67;82.34;97965.53;5009886;28;20229;-82
2022/02/21 00:16:40;;;;;;;1.10;0.10;;;;;;;9.72;81.89;97941.97;5002967;28;20230;-81
2022/02/21 00:19:06;;;;;;;0.40;0.30;;;;;;;9.73;82.02;97970.19;5018395;28;20203;-82
2022/02/21 00:21:34;;;;;;;2.83;0.40;;;;;;;9.73;82.38;97986.97;5005893;28;20680;-81
2022/02/21 00:24:01;;;;;;;0.40;0.30;;;;;;;9.73;82.32;98005.59;5003111;28;20211;-81
2022/02/21 00:26:27;;;;;;;1.20;0.20;;;;;;;9.70;83.10;98037.78;5012522;28;20657;-80
2022/02/21 00:28:54;;;;;;;1.13;0.10;;;;;;;9.71;82.96;98124.50;5004665;28;20222;-81
2022/02/21 00:31:20;;;;;;;1.93;0.50;;;;;;;9.64;82.16;98247.53;5000923;28;20731;-81
2022/02/21 00:33:47;;;;;;;5.93;1.00;;;;;;;9.29;75.66;98229.69;5008877;28;20293;-80
2022/02/21 00:36:13;;;;;;;2.90;0.43;;;;;;;8.85;75.12;98233.94;5003150;28;20226;-82
2022/02/21 00:38:41;;;;;;;0.57;0.20;;;;;;;8.41;76.08;98240.75;4999560;28;20212;-83
2022/02/21 00:41:08;;;;;;;1.70;0.30;;;;;;;8.09;76.61;98228.59;5013569;28;20233;-81
2022/02/21 00:43:35;;;;;;;0.33;0.20;;;;;;;7.74;78.19;98238.91;5000138;28;20211;-81
2022/02/21 00:46:01;;;;;;;0.10;0.10;;;;;;;7.62;78.48;98236.41;5010623;28;20201;-81
2022/02/21 00:48:28;;;;;;;0.70;0.13;;;;;;;7.55;79.03;98187.59;5013405;28;20213;-83
2022/02/21 00:50:55;;;;;;;0.20;0.10;;;;;;;7.47;79.51;98198.03;5013472;28;20685;-82
2022/02/21 00:53:21;;;;;;;1.10;0.40;;;;;;;7.43;79.67;98224.94;5013116;28;20210;-81
2022/02/21 00:55:50;;;;;;;0.47;0.40;;;;;;;7.38;79.91;98241.22;5012036;28;20223;-80
2022/02/21 00:58:16;;;;;;;0.20;0.10;;;;;;;7.31;80.41;98235.66;5002290;28;20269;-81
2022/02/21 01:00:43;;;;;;;0.10;0.10;;;;;;;7.29;80.58;98250.00;5009226;28;20237;-82
2022/02/21 01:03:10;;;;;;;0.40;0.10;;;;;;;7.29;81.02;98260.56;5015828;28;20202;-82
2022/02/21 01:05:40;;;;;;;0.43;0.20;;;;;;;7.30;80.16;98254.31;5014262;28;20214;-82
2022/02/21 01:08:08;;;;;;;0.23;0.10;;;;;;;7.29;80.37;98269.34;5011766;28;20199;-83
2022/02/21 01:10:35;;;;;;;0.47;0.20;;;;;;;7.29;80.53;98261.41;5010001;28;20234;-80
2022/02/21 01:13:02;;;;;;;0.63;0.20;;;;;;;7.30;80.95;98260.44;5000683;28;20238;-82
2022/02/21 01:15:29;;;;;;;1.00;0.20;;;;;;;7.29;81.11;98273.81;5012274;28;20210;-80
2022/02/21 01:17:56;;;;;;;0.33;0.10;;;;;;;7.29;81.28;98272.00;5011960;28;20203;-80
2022/02/21 01:20:22;;;;;;;0.20;0.20;;;;;;;7.26;81.46;98279.38;5024391;28;20226;-81
2022/02/21 01:22:50;;;;;;;0.33;0.10;;;;;;;7.19;81.53;98294.09;5012417;28;20211;-81
2022/02/21 01:25:18;;;;;;;0.70;0.20;;;;;;;7.15;81.20;98292.72;5012123;28;20206;-81
2022/02/21 01:27:44;;;;;;;1.93;0.30;;;;;;;7.13;81.10;98292.00;5001646;28;20212;-81
2022/02/21 01:30:13;;;;;;;1.60;0.20;;;;;;;7.10;80.87;98313.44;4996242;28;20261;-81
2022/02/21 01:32:40;;;;;;;0.40;0.20;;;;;;;7.08;80.40;98288.91;5005633;28;20218;-81
2022/02/21 01:35:08;;;;;;;0.37;0.17;;;;;;;7.03;80.17;98305.19;4992714;28;20215;-81
2022/02/21 01:37:34;;;;;;;1.03;0.30;;;;;;;7.04;80.89;98287.50;4992737;28;20688;-82
2022/02/21 01:40:01;;;;;;;1.90;0.40;;;;;;;7.02;80.00;98315.91;5011784;28;20234;-80
2022/02/21 01:42:27;;;;;;;0.33;0.20;;;;;;;6.95;80.74;98303.22;5009538;28;20207;-81
2022/02/21 01:44:54;;;;;;;0.73;0.30;;;;;;;6.96;81.09;98318.13;4997044;28;20214;-83
2022/02/21 01:47:23;;;;;;;0.73;0.20;;;;;;;6.97;80.71;98329.53;5017478;28;20204;-82
2022/02/21 01:49:50;;;;;;;0.33;0.17;;;;;;;6.96;81.02;98335.81;5004458;28;20222;-81
2022/02/21 01:52:18;;;;;;;0.23;0.10;;;;;;;6.96;80.81;98327.88;5009737;28;20222;-80
2022/02/21 01:54:45;;;;;;;0.20;0.20;;;;;;;6.95;81.50;98331.47;5003761;28;20199;-80
2022/02/21 01:57:12;;;;;;;1.07;0.30;;;;;;;6.93;81.17;98347.50;5001270;28;20609;-81
2022/02/21 01:59:41;;;;;;;0.60;0.20;;;;;;;6.91;82.29;98348.56;5016478;28;20245;-81
2022/02/21 02:02:08;;;;;;;1.07;0.20;;;;;;;6.86;82.36;98332.25;5027880;28;20214;-82
2022/02/21 02:04:37;;;;;;;1.40;0.30;;;;;;;6.81;82.48;98358.25;5021092;28;20210;-81
2022/02/21 02:07:06;;;;;;;0.23;0.20;;;;;;;6.78;82.29;98361.19;5021938;28;20652;-80
2022/02/21 02:09:32;;;;;;;0.40;0.30;;;;;;;6.72;82.93;98367.81;5019865;28;20228;-80
2022/02/21 02:11:59;;;;;;;1.40;0.40;;;;;;;6.71;83.11;98375.88;5023008;28;20230;-82
2022/02/21 02:14:30;;;;;;;1.27;0.30;;;;;;;6.63;82.85;98366.75;5015962;28;20214;-80
2022/02/21 02:16:56;;;;;;;1.13;0.40;;;;;;;6.60;83.22;98382.91;5015010;28;20314;-80
2022/02/21 02:19:23;;;;;;;1.70;0.60;;;;;;;6.59;82.58;98381.22;5033287;28;20206;-80
2022/02/21 02:21:56;;;;;;;0.73;0.30;;;;;;;6.57;82.30;98366.44;4995709;28;20208;-82
2022/02/21 02:24:25;;;;;;;1.60;0.40;;;;;;;6.45;81.05;98370.94;5008547;28;20211;-83
2022/02/21 02:26:55;;;;;;;3.57;0.43;;;;;;;6.45;81.52;98376.22;5014950;28;20748;-82
2022/02/21 02:29:23;;;;;;;1.43;0.37;;;;;;;6.46;80.98;98391.13;5006168;28;20219;-81
2022/02/21 02:31:50;;;;;;;0.90;0.30;;;;;;;6.44;80.65;98387.78;5012912;28;20757;-81
2022/02/21 02:34:16;;;;;;;2.87;0.43;;;;;;;6.40;80.34;98438.38;5005267;28;20214;-82
2022/02/21 02:36:44;;;;;;;0.50;0.40;;;;;;;6.34;79.30;98399.22;5009010;28;20242;-81
2022/02/21 02:39:12;;;;;;;0.97;0.30;;;;;;;6.33;79.08;98418.69;5000455;28;20627;-81
2022/02/21 02:41:41;;;;;;;1.03;0.20;;;;;;;6.29;79.32;98433.97;4996909;28;20559;-82
2022/02/21 02:44:07;;;;;;;1.83;0.40;;;;;;;6.24;79.37;98412.38;5011077;28;20211;-80
2022/02/21 02:46:34;;;;;;;1.83;0.30;;;;;;;6.19;79.67;98415.38;5010223;28;20205;-79
2022/02/21 02:49:01;;;;;;;0.73;0.30;;;;;;;6.13;78.93;98413.22;4996278;28;20212;-81
2022/02/21 02:51:27;;;;;;;3.87;0.40;;;;;;;6.05;78.83;98418.28;5012102;28;20230;-82
2022/02/21 02:53:54;;;;;;;3.70;0.70;;;;;;;6.00;78.92;98423.09;5015922;28;20657;-80
2022/02/21 02:56:20;;;;;;;3.03;0.70;;;;;;;5.96;78.95;98431.38;5016180;28;20234;-81
2022/02/21 02:58:48;;;;;;;3.50;0.77;;;;;;;5.88;79.20;98417.00;5013887;28;20661;-80
2022/02/21 03:01:15;;;;;;;2.40;0.50;;;;;;;5.75;78.99;98418.88;5015213;28;20245;-80
2022/02/21 03:03:41;;;;;;;1.03;0.43;;;;;;;5.72;79.14;98421.78;4997054;28;20215;-80
2022/02/21 03:06:08;;;;;;;2.33;0.60;;;;;;;5.66;79.21;98416.97;5007674;28;20627;-80
2022/02/21 03:08:34;;;;;;;1.23;0.27;;;;;;;5.62;79.32;98409.41;5023654;28;20234;-80
2022/02/21 03:11:01;;;;;;;2.30;0.60;;;;;;;5.58;79.32;98419.38;5017139;28;20236;-80
2022/02/21 03:13:28;;;;;;;1.33;0.50;;;;;;;5.52;79.48;98412.78;5015837;28;20217;-82
2022/02/21 03:15:57;;;;;;;1.87;0.50;;;;;;;5.45;79.38;98440.63;5023619;28;20574;-82
2022/02/21 03:18:23;;;;;;;3.27;0.73;;;;;;;5.42;79.38;98463.75;5026876;28;20226;-82
2022/02/21 03:20:50;;;;;;;3.53;0.50;;;;;;;5.31;79.06;98443.50;5023695;28;20226;-80
2022/02/21 03:23:16;;;;;;;2.90;0.53;;;;;;;5.23;78.52;98504.75;5018166;28;20217;-80
2022/02/21 03:25:43;;;;;;;3.20;0.50;;;;;;;5.21;78.28;98513.75;5030436;28;20799;-81
2022/02/21 03:28:10;;;;;;;1.00;0.50;;;;;;;5.05;77.62;98505.31;5028953;28;20210;-82
2022/02/21 03:30:36;;;;;;;2.13;0.67;;;;;;;4.99;78.38;98509.25;5009545;28;20241;-82
2022/02/21 03:33:05;;;;;;;4.20;1.00;;;;;;;4.84;78.75;98507.72;5018785;28;20226;-81
2022/02/21 03:35:32;;;;;;;2.50;0.60;;;;;;;4.79;79.38;98523.91;5008667;28;20211;-81
2022/02/21 03:37:58;;;;;;;3.67;0.50;;;;;;;4.74;79.72;98514.66;5024190;28;20688;-81
2022/02/21 03:40:25;;;;;;;5.87;1.10;;;;;;;4.68;78.79;98518.56;5011792;28;20225;-81
2022/02/21 03:42:52;;;;;;;4.27;0.93;;;;;;;4.64;78.62;98511.88;5013625;28;20215;-81
2022/02/21 03:45:20;;;;;;;5.80;1.37;;;;;;;4.59;79.24;98503.44;5012876;28;20203;-80
2022/02/21 03:47:47;;;;;;;3.43;0.90;;;;;;;4.60;79.22;98505.13;5009175;28;20303;-80
2022/02/21 03:50:14;;;;;;;5.27;1.10;;;;;;;4.54;79.21;98511.69;5008675;28;20681;-79
2022/02/21 03:52:41;;;;;;;4.53;1.30;;;;;;;4.52;79.34;98504.81;5019456;28;20295;-79
2022/02/21 03:55:09;;;;;;;5.03;1.47;;;;;;;4.47;79.24;98492.00;5019741;28;20297;-79
2022/02/21 03:57:36;;;;;;;4.97;1.17;;;;;;;4.47;78.68;98506.97;5017175;28;20231;-79
2022/02/21 04:00:05;;;;;;;7.20;1.40;;;;;;;4.48;78.65;98516.53;5009156;28;20732;-81
2022/02/21 04:02:31;;;;;;;6.37;1.77;;;;;;;4.48;78.54;98513.91;5007296;28;20684;-81
2022/02/21 04:05:01;;;;;;;5.40;1.67;;;;;;;4.47;78.50;98523.63;5010331;28;20210;-80
2022/02/21 04:07:29;;;;;;;5.47;1.07;;;;;;;4.50;78.63;98525.19;5000868;28;20211;-80
2022/02/21 04:09:55;;;;;;;8.83;1.37;;;;;;;4.49;79.06;98528.75;5010308;28;20222;-81
2022/02/21 04:12:22;;;;;;;15.33;1.60;;;;;;;4.49;79.13;98513.78;5017636;28;20210;-79
2022/02/21 04:14:48;;;;;;;3.60;1.30;;;;;;;4.48;79.07;98533.19;5011397;28;20222;-79
2022/02/21 04:17:15;;;;;;;5.50;1.00;;;;;;;4.45;79.13;98554.53;5014747;28;20230;-80
2022/02/21 04:19:42;;;;;;;6.40;1.10;;;;;;;4.44;78.85;98530.91;5004865;28;20227;-81
2022/02/21 04:22:09;;;;;;;5.60;0.93;;;;;;;4.42;78.86;98524.91;5013715;28;20206;-80
2022/02/21 04:24:37;;;;;;;4.80;1.10;;;;;;;4.42;78.72;98548.63;5006726;28;20212;-79
2022/02/21 04:27:04;;;;;;;6.43;1.30;;;;;;;4.40;78.66;98537.34;5014181;28;20217;-79
2022/02/21 04:29:30;;;;;;;5.90;1.07;;;;;;;4.39;78.32;98554.94;5022351;28;20225;-78
2022/02/21 04:31:57;;;;;;;4.07;1.10;;;;;;;4.36;78.38;98542.00;5012506;28;20214;-80
2022/02/21 04:34:23;;;;;;;3.63;0.97;;;;;;;4.34;77.43;98564.13;5013013;28;20213;-79
2022/02/21 04:36:51;;;;;;;3.33;0.70;;;;;;;4.32;77.87;98569.50;5008090;28;20214;-79
2022/02/21 04:39:17;;;;;;;3.97;1.07;;;;;;;4.27;76.78;98571.66;5016717;28;20207;-80
2022/02/21 04:41:45;;;;;;;6.97;1.60;;;;;;;4.25;76.65;98575.34;5004143;28;20218;-80
2022/02/21 04:44:12;;;;;;;4.80;1.30;;;;;;;4.28;76.76;98588.31;5011069;28;20232;-80
2022/02/21 04:46:38;;;;;;;4.43;1.07;;;;;;;4.26;76.33;98579.66;5007154;28;20759;-81
2022/02/21 04:49:05;;;;;;;6.60;1.27;;;;;;;4.25;76.09;98592.00;5013878;28;20195;-80
2022/02/21 04:51:31;;;;;;;5.20;1.40;;;;;;;4.27;76.42;98599.78;5003232;28;20215;-80
2022/02/21 04:53:58;;;;;;;6.93;1.33;;;;;;;4.27;76.59;98603.28;5003954;28;20211;-81
2022/02/21 04:56:24;;;;;;;4.70;1.30;;;;;;;4.26;77.32;98619.19;5004991;28;20207;-80
2022/02/21 04:58:52;;;;;;;9.20;1.87;;;;;;;4.26;77.54;98635.84;5009171;28;20232;-81
2022/02/21 05:01:19;;;;;;;4.13;1.50;;;;;;;4.24;76.98;98629.81;5009317;28;20638;-79
2022/02/21 05:03:45;;;;;;;4.73;0.70;;;;;;;4.19;76.68;98622.22;5009642;28;20207;-80
2022/02/21 05:06:12;;;;;;;3.80;0.97;;;;;;;4.18;76.89;98623.19;5009807;28;20213;-80
2022/02/21 05:08:39;;;;;;;6.50;1.27;;;;;;;4.11;76.98;98629.84;5009561;28;20646;-79
2022/02/21 05:11:06;;;;;;;4.50;1.10;;;;;;;4.06;76.39;98629.31;5012890;28;20755;-80
2022/02/21 05:13:32;;;;;;;2.93;0.70;;;;;;;4.01;75.83;98633.19;5012929;28;20245;-79
2022/02/21 05:16:00;;;;;;;7.27;1.27;;;;;;;3.97;75.66;98639.63;5002364;28;20215;-80
2022/02/21 05:18:27;;;;;;;6.73;1.20;;;;;;;3.98;75.86;98642.16;5013639;28;20666;-80
2022/02/21 05:20:53;;;;;;;3.90;1.00;;;;;;;3.94;76.23;98637.22;5009104;28;20250;-80
2022/02/21 05:23:20;;;;;;;6.23;1.10;;;;;;;3.94;77.21;98653.03;4993079;28;20214;-79
2022/02/21 05:25:46;;;;;;;5.90;1.20;;;;;;;3.90;77.18;98668.19;4997258;28;20230;-79
2022/02/21 05:28:13;;;;;;;6.17;1.60;;;;;;;3.88;77.63;98649.00;5011234;28;20199;-80
2022/02/21 05:30:40;;;;;;;4.70;1.40;;;;;;;3.84;77.84;98651.00;5011541;28;20715;-80
2022/02/21 05:33:08;;;;;;;5.63;0.90;;;;;;;3.84;77.54;98637.81;5014148;28;20264;-79
2022/02/21 05:35:34;;;;;;;6.77;1.30;;;;;;;3.80;77.86;98641.59;5005710;28;20207;-81
2022/02/21 05:38:01;;;;;;;5.00;1.33;;;;;;;3.79;77.16;98644.34;5007374;28;20686;-80
2022/02/21 05:40:27;;;;;;;5.53;1.40;;;;;;;3.79;76.92;98658.34;5000661;28;20233;-80
2022/02/21 05:42:54;;;;;;;7.93;1.63;;;;;;;3.78;76.58;98671.63;5002729;28;20213;-80
2022/02/21 05:45:20;;;;;;;4.93;1.03;;;;;;;3.78;77.42;98669.81;5003623;28;20204;-80
2022/02/21 05:47:47;;;;;;;2.70;0.57;;;;;;;3.78;77.32;98674.25;5004449;28;20204;-80
2022/02/21 05:50:15;;;;;;;2.30;0.50;;;;;;;3.73;77.04;98687.75;5004864;28;20222;-80
2022/02/21 05:52:42;;;;;;;2.43;0.77;;;;;;;3.65;77.67;98683.91;5000971;28;20220;-79
2022/02/21 05:55:09;;;;;;;3.60;0.83;;;;;;;3.53;77.56;98676.84;5003807;28;20222;-79
2022/02/21 05:57:35;;;;;;;4.87;1.27;;;;;;;3.44;78.26;98655.44;5002761;28;20231;-79
2022/02/21 06:00:03;;;;;;;3.60;0.97;;;;;;;3.39;78.42;98690.91;4999945;28;20239;-79
2022/02/21 06:02:30;;;;;;;7.37;1.20;;;;;;;3.30;79.49;98697.59;5009912;28;20308;-80
2022/02/21 06:04:56;;;;;;;3.60;1.17;;;;;;;3.29;79.00;98695.06;5007164;28;20198;-80
2022/02/21 06:07:24;;;;;;;2.67;0.87;;;;;;;3.28;78.92;98693.38;5002235;28;20215;-81
2022/02/21 06:09:51;;;;;;;6.47;1.07;;;;;;;3.31;78.55;98704.56;5002998;28;20234;-79
2022/02/21 06:12:17;;;;;;;5.33;1.00;;;;;;;3.34;78.37;98701.72;5003164;28;20571;-80
2022/02/21 06:14:44;;;;;;;3.60;1.00;;;;;;;3.33;77.86;98707.09;4995118;28;20199;-80
2022/02/21 06:17:10;;;;;;;7.10;1.67;;;;;;;3.37;77.84;98724.38;4999706;28;20241;-80
2022/02/21 06:19:37;;;;;;;4.47;1.40;;;;;;;3.36;77.37;98718.25;5004980;28;20566;-81
2022/02/21 06:22:04;;;;;;;4.50;1.40;;;;;;;3.38;76.97;98734.81;5003378;28;20200;-81
2022/02/21 06:24:32;;;;;;;7.80;1.23;;;;;;;3.36;77.09;98730.56;5009305;28;20646;-81
2022/02/21 06:26:58;;;;;;;5.40;1.53;;;;;;;3.35;76.61;98744.66;5000395;28;20291;-82
2022/02/21 06:29:25;;;;;;;4.77;1.00;;;;;;;3.36;76.92;98731.41;5019025;28;20203;-79
2022/02/21 06:31:51;;;;;;;3.17;0.80;;;;;;;3.36;76.66;98741.09;5013618;28;20226;-80
2022/02/21 06:34:18;;;;;;;6.73;1.30;;;;;;;3.38;76.67;98753.22;5006954;28;20215;-79
2022/02/21 06:36:45;;;;;;;1.93;1.10;;;;;;;3.36;76.91;98763.00;5003764;28;20218;-79
2022/02/21 06:39:11;;;;;;;4.07;1.20;;;;;;;3.38;76.43;98749.75;5010960;28;20587;-79
2022/02/21 06:41:39;;;;;;;5.97;1.80;;;;;;;3.43;76.41;98763.41;5009554;28;20217;-79
2022/02/21 06:44:06;;;;;;;4.47;1.83;;;;;;;3.45;76.89;98759.75;5014835;28;20203;-78
2022/02/21 06:46:33;;;;;;;5.07;1.53;;;;;;;3.47;76.40;98749.97;5024325;28;20199;-78
2022/02/21 06:48:59;;;;;;;6.13;1.93;;;;;;;3.48;77.12;98742.94;5007944;28;20209;-79
2022/02/21 06:51:26;;;;;;;7.57;2.00;;;;;;;3.46;76.54;98748.28;5009093;28;20230;-79
2022/02/21 06:53:52;;;;;;;8.07;1.53;;;;;;;3.46;77.10;98742.19;5016690;28;20214;-79
2022/02/21 06:56:19;;;;;;;9.87;1.87;;;;;;;3.47;76.85;98734.19;5005474;28;20697;-80
2022/02/21 06:58:47;;;;;;;2.60;1.10;;;;;;;3.44;76.58;98726.47;5012867;28;20237;-78
2022/02/21 07:01:13;;;;;;;4.47;0.90;;;;;;;3.41;76.51;98739.84;4978978;28;1059098;-78
2022/02/21 07:03:40;;;;;;;8.37;1.70;;;;;;;3.40;77.05;98747.84;5006698;28;20219;-78
2022/02/21 07:06:08;;;;;;;7.03;1.47;;;;;;;3.38;76.31;98739.22;5012447;28;20215;-78
2022/02/21 07:08:35;;;;;;;5.23;1.80;;;;;;;3.35;76.46;98756.03;5006981;28;20229;-78
2022/02/21 07:11:02;;;;;;;7.83;1.70;;;;;;;3.38;75.92;98744.47;5009008;28;20238;-78
2022/02/21 07:13:29;;;;;;;3.57;0.97;;;;;;;3.36;75.77;98757.72;5009360;28;20425;-78
2022/02/21 07:15:57;;;;;;;6.20;1.30;;;;;;;3.37;75.71;98767.31;5010031;28;20265;-79
2022/02/21 07:18:23;;;;;;;5.23;1.30;;;;;;;3.41;75.70;98776.69;5007448;28;20235;-78
2022/02/21 07:20:50;;;;;;;6.30;1.43;;;;;;;3.42;76.46;98788.88;5006104;28;20230;-78
2022/02/21 07:23:16;;;;;;;6.37;1.50;;;;;;;3.43;76.08;98790.59;5009251;28;20218;-78
2022/02/21 07:25:43;;;;;;;5.87;1.10;;;;;;;3.46;76.33;98790.41;5024483;28;20221;-78
2022/02/21 07:28:09;;;;;;;4.00;1.17;;;;;;;3.46;75.41;98794.81;5014529;28;20207;-77
2022/02/21 07:30:36;;;;;;;3.73;1.13;;;;;;;3.41;75.72;98803.00;5027162;28;20234;-78
2022/02/21 07:33:04;;;;;;;6.13;1.50;;;;;;;3.41;75.64;98797.72;5010333;28;20218;-79
2022/02/21 07:35:30;;;;;;;6.20;2.30;;;;;;;3.42;75.90;98795.94;5006746;28;20649;-78
2022/02/21 07:37:57;;;;;;;5.77;1.03;;;;;;;3.40;76.08;98793.41;5006715;28;20231;-79
2022/02/21 07:40:23;;;;;;;6.07;1.50;;;;;;;3.46;76.17;98789.53;5011138;28;20227;-78
2022/02/21 07:42:52;;;;;;;8.17;1.83;;;;;;;3.50;76.12;98788.41;5011092;28;20222;-78
2022/02/21 07:45:20;;;;;;;7.53;1.43;;;;;;;3.51;75.96;98799.78;5007965;28;20219;-78
2022/02/21 07:47:48;;;;;;;5.00;2.23;;;;;;;3.52;75.67;98796.22;5015127;28;20214;-78
2022/02/21 07:50:17;;;;;;;7.93;1.87;;;;;;;3.52;75.94;98781.28;5002377;28;20230;-79
2022/02/21 07:52:43;;;;;;;4.47;1.13;;;;;;;3.57;75.35;98791.50;5014034;28;20693;-78
2022/02/21 07:55:11;;;;;;;4.97;1.17;;;;;;;3.60;75.25;98783.38;5015216;28;20599;-78
2022/02/21 07:57:40;;;;;;;4.10;1.23;;;;;;;3.60;75.51;98801.81;5014158;28;20209;-77
2022/02/21 08:00:10;;;;;;;6.03;1.60;;;;;;;3.64;75.68;98798.06;5008370;28;20238;-79
2022/02/21 08:02:37;;;;;;;7.03;1.57;;;;;;;3.63;75.54;98796.34;5004807;28;20207;-78
2022/02/21 08:05:04;;;;;;;7.47;1.53;;;;;;;3.67;75.45;98797.84;5008666;28;20214;-79
2022/02/21 08:07:32;;;;;;;8.17;1.70;;;;;;;3.68;75.00;98792.50;5013953;28;20298;-79
2022/02/21 08:09:59;;;;;;;11.20;2.10;;;;;;;3.72;74.83;98791.38;5020539;28;20240;-79
2022/02/21 08:12:26;;;;;;;7.07;1.90;;;;;;;3.77;74.57;98798.94;5001294;28;20210;-79
2022/02/21 08:14:53;;;;;;;10.33;2.10;;;;;;;3.78;74.54;98790.09;5014042;28;20669;-80
2022/02/21 08:17:19;;;;;;;7.10;1.50;;;;;;;3.82;73.73;98807.38;5013876;28;20211;-79
2022/02/21 08:19:46;;;;;;;6.70;1.50;;;;;;;3.81;74.23;98795.16;5013104;28;20238;-79
2022/02/21 08:22:12;;;;;;;6.07;1.63;;;;;;;3.82;73.70;98787.16;5013431;28;20723;-79
2022/02/21 08:24:40;;;;;;;8.37;1.63;;;;;;;3.88;74.23;98806.16;5000762;28;20215;-80
2022/02/21 08:27:07;;;;;;;6.50;1.80;;;;;;;3.89;73.65;98790.25;5013064;28;20210;-79
2022/02/21 08:29:34;;;;;;;8.10;1.97;;;;;;;3.90;73.83;98789.31;5013654;28;20230;-78
2022/02/21 08:32:00;;;;;;;8.87;2.30;;;;;;;3.89;73.09;98798.16;5012754;28;20272;-79
2022/02/21 08:34:27;;;;;;;8.03;1.70;;;;;;;3.93;73.49;98804.06;5006574;28;20215;-78
2022/02/21 08:36:54;;;;;;;6.77;2.30;;;;;;;3.95;73.57;98816.16;5002247;28;20204;-78
2022/02/21 08:39:21;;;;;;;7.30;2.23;;;;;;;3.96;73.01;98804.69;5003256;28;20230;-78
2022/02/21 08:41:49;;;;;;;6.13;2.27;;;;;;;3.96;73.28;98794.16;5002470;28;20222;-79
2022/02/21 08:44:15;;;;;;;8.30;2.37;;;;;;;4.00;73.52;98808.81;4997638;28;20208;-78
2022/02/21 08:46:42;;;;;;;9.60;2.43;;;;;;;4.05;72.86;98811.16;5009799;28;20206;-79
2022/02/21 08:49:08;;;;;;;6.77;2.13;;;;;;;4.09;73.28;98791.56;5009200;28;20209;-79
2022/02/21 08:51:35;;;;;;;6.87;2.03;;;;;;;4.09;72.26;98792.44;5006707;28;20253;-79
2022/02/21 08:54:02;;;;;;;9.77;1.87;;;;;;;4.10;72.56;98796.75;5006479;28;20221;-78
2022/02/21 08:56:29;;;;;;;7.77;2.50;;;;;;;4.16;72.38;98806.00;5006652;28;20233;-79
2022/02/21 08:58:57;;;;;;;7.03;2.33;;;;;;;4.14;71.74;98798.22;4998789;28;20254;-79
2022/02/21 09:01:23;;;;;;;6.40;2.10;;;;;;;4.18;72.25;98810.25;5014491;28;20245;-80
2022/02/21 09:03:50;;;;;;;7.93;2.43;;;;;;;4.21;71.69;98803.09;5002685;28;20214;-78
2022/02/21 09:06:16;;;;;;;13.87;2.40;;;;;;;4.24;71.38;98816.91;5006444;28;20207;-79
2022/02/21 09:08:43;;;;;;;8.20;2.70;;;;;;;4.26;71.54;98804.47;5005131;28;20245;-80
2022/02/21 09:11:10;;;;;;;5.83;2.70;;;;;;;4.31;71.89;98822.59;5012686;28;20246;-79
2022/02/21 09:13:37;;;;;;;6.60;2.90;;;;;;;4.36;71.55;98817.88;4998262;28;20709;-79
2022/02/21 09:16:06;;;;;;;6.63;2.47;;;;;;;4.38;71.65;98823.88;5008206;28;20213;-79
2022/02/21 09:18:32;;;;;;;11.23;2.53;;;;;;;4.40;71.12;98829.91;5004161;28;20231;-79
2022/02/21 09:20:59;;;;;;;13.73;2.73;;;;;;;4.43;71.56;98824.44;5019639;28;20727;-79
2022/02/21 09:23:25;;;;;;;11.60;2.47;;;;;;;4.44;71.41;98826.13;5012824;28;20206;-79
2022/02/21 09:25:52;;;;;;;10.77;3.37;;;;;;;4.46;71.61;98818.94;5012536;28;20214;-79
2022/02/21 09:28:19;;;;;;;9.67;2.80;;;;;;;4.49;71.00;98816.94;5012925;28;20214;-78
2022/02/21 09:30:45;;;;;;;8.93;2.00;;;;;;;4.50;71.10;98830.94;5015925;28;20237;-79
2022/02/21 09:33:13;;;;;;;11.17;2.77;;;;;;;4.51;71.50;98835.28;5025975;28;20207;-78
2022/02/21 09:35:39;;;;;;;6.97;2.10;;;;;;;4.55;71.05;98828.84;5012028;28;20210;-80
2022/02/21 09:38:06;;;;;;;10.33;2.43;;;;;;;4.55;71.04;98826.22;5009049;28;20251;-80
2022/02/21 09:40:33;;;;;;;11.47;2.83;;;;;;;4.58;71.10;98844.47;4996197;28;20235;-80
2022/02/21 09:43:00;;;;;;;4.50;2.13;;;;;;;4.57;70.33;98824.31;5007329;28;20301;-80
2022/02/21 09:45:28;;;;;;;5.83;2.00;;;;;;;4.58;70.07;98827.81;5012604;28;20218;-79
2022/02/21 09:47:56;;;;;;;8.47;2.60;;;;;;;4.60;69.74;98825.91;5012008;28;20207;-79
2022/02/21 09:50:26;;;;;;;4.53;2.40;;;;;;;4.63;69.96;98820.44;5012084;28;20241;-79
2022/02/21 09:52:54;;;;;;;8.20;2.20;;;;;;;4.67;69.70;98837.72;5011823;28;20584;-79
2022/02/21 09:55:21;;;;;;;6.13;2.00;;;;;;;4.70;69.78;98827.81;5010321;28;20654;-80
2022/02/21 09:57:47;;;;;;;11.73;2.40;;;;;;;4.76;69.36;98823.91;5002881;28;20203;-79
2022/02/21 10:00:15;;;;;;;6.03;2.20;;;;;;;4.75;68.42;98838.06;4996252;28;20243;-78
2022/02/21 10:02:45;;;;;;;11.60;2.97;;;;;;;4.75;68.10;98835.41;5001200;28;20218;-78
2022/02/21 10:05:16;;;;;;;6.53;1.90;;;;;;;4.73;67.67;98843.44;5001621;28;20294;-79
2022/02/21 10:07:45;;;;;;;5.97;2.00;;;;;;;4.73;67.57;98826.75;5007628;28;20207;-78
2022/02/21 10:10:13;;;;;;;10.30;2.27;;;;;;;4.77;67.85;98836.16;5011847;28;20235;-79
2022/02/21 10:15:13;;;;;;;7.70;1.80;;;;;;;4.79;66.80;98834.25;5022722;28;20971;-72
2022/02/21 10:17:39;;;;;;;9.47;2.10;;;;;;;4.75;65.85;98825.72;5016455;28;20598;-72
2022/02/21 10:20:07;;;;;;;8.43;2.40;;;;;;;4.79;66.47;98835.09;5012691;28;20584;-72
2022/02/21 10:22:34;;;;;;;6.10;2.60;;;;;;;4.78;66.16;98835.22;5013059;28;20245;-72
2022/02/21 10:25:16;;;;;;;7.90;1.87;;;;;;;4.81;66.36;98835.00;5006791;28;20501;-72
2022/02/21 10:27:42;;;;;;;6.97;2.30;;;;;;;4.85;66.66;98821.47;5007327;28;20269;-72
2022/02/21 10:30:16;;;;;;;7.93;2.73;;;;;;;4.85;65.77;98829.38;5011514;28;20211;-72
2022/02/21 10:32:43;;;;;;;9.90;2.00;;;;;;;4.89;65.69;98825.59;5007436;28;20215;-72
2022/02/21 10:35:12;;;;;;;6.57;1.90;;;;;;;4.91;65.62;98822.00;5004579;28;20210;-72
2022/02/21 10:37:43;;;;;;;4.83;2.20;;;;;;;4.96;65.87;98819.91;5011874;28;20237;-72
2022/02/21 10:40:14;;;;;;;6.70;2.00;;;;;;;4.96;65.57;98825.19;5012260;28;20226;-71
2022/02/21 10:42:43;;;;;;;5.27;2.23;;;;;;;4.94;65.22;98813.91;5000305;28;20211;-72
2022/02/21 10:45:14;;;;;;;11.30;2.13;;;;;;;4.98;65.13;98799.53;5006317;28;20676;-72
2022/02/21 10:47:54;;;;;;;5.07;2.03;;;;;;;4.96;64.25;98810.19;5000280;28;20242;-71
2022/02/21 10:50:20;;;;;;;7.07;2.50;;;;;;;5.02;64.64;98817.66;5000644;28;20218;-73
2022/02/21 10:52:49;;;;;;;7.50;1.87;;;;;;;5.04;64.92;98830.75;5000895;28;20223;-72
2022/02/21 10:55:17;;;;;;;10.40;3.20;;;;;;;5.07;64.82;98818.19;5011471;28;20246;-72
2022/02/21 10:57:47;;;;;;;6.73;2.47;;;;;;;5.09;64.78;98811.03;5012738;28;20318;-72
2022/02/21 11:00:14;;;;;;;7.90;2.50;;;;;;;5.09;64.94;98808.38;5010552;28;20928;-73
2022/02/21 11:02:42;;;;;;;3.87;2.03;;;;;;;5.12;64.96;98800.25;5001721;28;20221;-72
2022/02/21 11:05:10;;;;;;;10.40;2.30;;;;;;;5.14;64.59;98805.44;5012529;28;20212;-75
2022/02/21 11:07:38;;;;;;;5.80;2.07;;;;;;;5.14;64.72;98794.88;5005854;28;20231;-72
2022/02/21 11:10:06;;;;;;;9.17;2.00;;;;;;;5.15;64.32;98802.69;4997843;28;20250;-73
2022/02/21 11:12:39;;;;;;;7.67;2.20;;;;;;;5.18;64.41;98801.63;5026883;28;20221;-72
2022/02/21 11:15:06;;;;;;;8.37;2.07;;;;;;;5.16;64.08;98791.19;5019252;28;20684;-73
2022/02/21 11:17:35;;;;;;;6.20;1.80;;;;;;;5.18;64.08;98801.63;5018523;28;20233;-73
2022/02/21 11:20:03;;;;;;;3.87;1.67;;;;;;;5.17;64.07;98798.16;5027748;28;20690;-74
2022/02/21 11:22:29;;;;;;;7.63;2.43;;;;;;;5.20;63.91;98797.06;5014292;28;20738;-73
2022/02/21 11:25:16;;;;;;;7.83;2.00;;;;;;;5.24;64.04;98783.56;5015645;28;20214;-73
2022/02/21 11:27:49;;;;;;;3.93;2.00;;;;;;;5.29;64.02;98783.22;5010142;28;20235;-73
2022/02/21 11:30:19;;;;;;;7.37;1.90;;;;;;;5.33;63.70;98778.59;5005933;28;20210;-73
2022/02/21 11:33:03;;;;;;;4.03;1.33;;;;;;;5.37;63.82;98762.41;5011002;28;20403;-74
2022/02/21 11:35:30;;;;;;;7.20;1.63;;;;;;;5.41;63.87;98769.13;4997741;28;20310;-74
2022/02/21 11:38:02;;;;;;;9.33;1.80;;;;;;;5.44;63.79;98755.72;5010001;28;20227;-72
2022/02/21 11:40:29;;;;;;;4.67;1.50;;;;;;;5.47;63.47;98752.03;5008361;28;20231;-72
2022/02/21 11:42:57;;;;;;;6.13;1.57;;;;;;;5.48;63.36;98744.00;5006499;28;20828;-71
2022/02/21 11:45:29;;;;;;;6.80;1.40;;;;;;;5.48;63.38;98756.34;5002967;28;20676;-73